Time;durP1;ratioP1;P1;durP2;ratioP2;P2;SDS_P1;SDS_P2;PMS_P1;PMS_P2;Temp;Humidity;BMP_temperature;BMP_pressure;BME280_temperature;BME280_humidity;BME280_pressure;Samples;Min_cycle;Max_cycle;Signal;HPM_P1;HPM_P2
2022/10/16 00:01:27;;;;;;;69.77;37.88;;;;;;;4.73;88.57;95225.08;1728897;81;21005;-52
2022/10/16 00:03:54;;;;;;;66.25;35.63;;;;;;;4.70;88.49;95229.39;1729134;81;21406;-52
2022/10/16 00:06:22;;;;;;;74.77;36.77;;;;;;;4.63;88.55;95223.20;1729040;83;21061;-51
2022/10/16 00:08:49;;;;;;;104.12;48.95;;;;;;;4.54;88.47;95222.84;1728892;81;21009;-54
2022/10/16 00:11:25;;;;;;;85.30;40.43;;;;;;;4.45;88.39;95226.60;1728948;81;21009;-52
2022/10/16 00:13:57;;;;;;;67.15;36.20;;;;;;;4.37;88.52;95232.66;1728917;83;21001;-51
2022/10/16 00:16:24;;;;;;;80.97;36.60;;;;;;;4.30;88.73;95223.74;1729214;82;21013;-51
2022/10/16 00:18:52;;;;;;;63.98;33.18;;;;;;;4.19;88.78;95215.61;1729021;81;20986;-52
2022/10/16 00:21:21;;;;;;;79.97;36.03;;;;;;;4.11;89.02;95221.48;1708316;82;21033;-53
2022/10/16 00:23:59;;;;;;;62.45;33.25;;;;;;;4.05;89.31;95218.38;1729294;83;21481;-51
2022/10/16 00:26:27;;;;;;;67.25;34.70;;;;;;;4.08;89.72;95220.31;1728333;82;21135;-51
2022/10/16 00:28:56;;;;;;;71.87;35.28;;;;;;;4.13;89.86;95224.58;1728963;83;21085;-51
2022/10/16 00:31:23;;;;;;;80.87;37.67;;;;;;;4.12;89.90;95221.09;1729019;83;20969;-51
2022/10/16 00:33:50;;;;;;;82.10;37.35;;;;;;;4.14;90.20;95231.00;1729005;81;21005;-51
2022/10/16 00:36:20;;;;;;;63.55;31.10;;;;;;;4.17;90.33;95220.69;1729012;81;21256;-51
2022/10/16 00:38:47;;;;;;;51.75;28.62;;;;;;;4.20;90.10;95231.38;1728870;81;21078;-52
2022/10/16 00:41:16;;;;;;;58.63;31.40;;;;;;;4.14;89.86;95228.86;1729020;81;21006;-53
2022/10/16 00:43:46;;;;;;;52.88;29.20;;;;;;;4.07;89.98;95235.09;1728974;83;20982;-51
2022/10/16 00:46:33;;;;;;;57.67;29.55;;;;;;;4.03;90.23;95229.48;1708477;81;20970;-57
2022/10/16 00:49:04;;;;;;;56.42;29.32;;;;;;;3.98;89.97;95241.55;1729144;81;21139;-52
2022/10/16 00:51:41;;;;;;;40.20;24.95;;;;;;;3.87;89.98;95242.14;1728876;81;20962;-51
2022/10/16 00:54:25;;;;;;;49.30;26.23;;;;;;;3.82;90.04;95239.83;1728394;82;21493;-52
2022/10/16 00:56:52;;;;;;;52.13;27.82;;;;;;;3.83;90.25;95245.47;1728739;81;21057;-51
2022/10/16 00:59:26;;;;;;;49.88;26.87;;;;;;;3.85;90.38;95243.13;1729088;81;20950;-51
2022/10/16 01:01:53;;;;;;;44.63;27.22;;;;;;;3.85;90.57;95243.72;1729148;81;21444;-51
2022/10/16 01:04:22;;;;;;;58.75;29.42;;;;;;;3.89;90.66;95245.25;1728963;83;21418;-50
2022/10/16 01:07:13;;;;;;;50.85;27.20;;;;;;;3.93;90.69;95234.36;1728999;81;21010;-51
2022/10/16 01:10:07;;;;;;;53.20;29.05;;;;;;;3.97;90.61;95235.91;1728976;81;20948;-51
2022/10/16 01:12:47;;;;;;;;;;;;;;;4.03;90.31;95237.66;1731656;81;21013;-51
2022/10/16 01:15:29;;;;;;;49.77;27.40;;;;;;;4.06;90.27;95237.63;1728923;81;22077;-52
2022/10/16 01:18:10;;;;;;;56.10;29.20;;;;;;;4.10;90.26;95237.05;1728344;83;21032;-50
2022/10/16 01:20:49;;;;;;;54.85;27.65;;;;;;;4.14;89.98;95233.73;1728668;81;21005;-52
2022/10/16 01:23:21;;;;;;;45.78;25.52;;;;;;;4.17;89.70;95238.95;1728952;81;20969;-51
2022/10/16 01:26:05;;;;;;;46.88;25.70;;;;;;;4.20;89.43;95234.10;1696122;83;21387;-52
2022/10/16 01:28:57;;;;;;;41.92;26.05;;;;;;;4.27;89.26;95239.52;1728944;82;21478;-51
2022/10/16 01:31:27;;;;;;;47.83;26.73;;;;;;;4.34;89.20;95238.11;1720071;83;20963;-52
2022/10/16 01:34:08;;;;;;;41.30;25.25;;;;;;;4.37;88.61;95243.56;1728842;81;21002;-52
2022/10/16 01:36:55;;;;;;;51.08;26.02;;;;;;;4.32;88.19;95238.53;1729368;83;21060;-51
2022/10/16 01:39:26;;;;;;;35.38;21.20;;;;;;;4.20;87.74;95235.47;1728940;82;21006;-52
2022/10/16 01:41:57;;;;;;;34.18;20.97;;;;;;;4.03;87.60;95242.50;1728994;81;21744;-51
2022/10/16 01:44:26;;;;;;;40.12;21.95;;;;;;;3.90;87.62;95244.68;1728873;81;21410;-52
2022/10/16 01:46:53;;;;;;;43.60;23.57;;;;;;;3.77;87.79;95240.23;1728929;81;21053;-51
2022/10/16 01:49:22;;;;;;;39.25;23.15;;;;;;;3.66;87.97;95247.63;1728965;81;20996;-52
2022/10/16 01:51:52;;;;;;;39.63;22.58;;;;;;;3.56;88.08;95251.15;1728902;81;21009;-51
2022/10/16 01:54:19;;;;;;;34.80;21.05;;;;;;;3.45;88.24;95255.02;1728902;82;21240;-52
2022/10/16 01:56:47;;;;;;;34.80;20.95;;;;;;;3.36;88.46;95255.21;1728887;83;21028;-51
2022/10/16 01:59:17;;;;;;;33.53;21.97;;;;;;;3.29;88.66;95256.02;1728860;81;20970;-51
2022/10/16 02:01:47;;;;;;;30.57;20.35;;;;;;;3.25;88.93;95255.81;1729326;83;20970;-52
2022/10/16 02:04:22;;;;;;;33.45;21.75;;;;;;;3.25;89.35;95255.81;1729164;81;20994;-51
2022/10/16 02:06:49;;;;;;;34.43;20.45;;;;;;;3.24;89.71;95254.26;1726604;82;21146;-52
2022/10/16 02:09:17;;;;;;;33.08;19.05;;;;;;;3.29;90.12;95258.73;1728937;81;21073;-51
2022/10/16 02:11:44;;;;;;;31.62;20.35;;;;;;;3.30;90.01;95263.00;1729002;81;21462;-51
2022/10/16 02:14:12;;;;;;;33.80;20.02;;;;;;;3.30;89.95;95269.80;1729122;81;20958;-51
2022/10/16 02:16:43;;;;;;;33.83;21.12;;;;;;;3.28;89.85;95271.34;1729152;83;21064;-51
2022/10/16 02:19:14;;;;;;;38.40;22.32;;;;;;;3.23;89.97;95275.81;1709381;83;21200;-51
2022/10/16 02:22:03;;;;;;;43.75;24.37;;;;;;;3.18;90.10;95278.89;1728979;81;20997;-51
2022/10/16 02:24:41;;;;;;;31.90;21.57;;;;;;;3.16;90.32;95282.58;1729040;83;20970;-51
2022/10/16 02:27:29;;;;;;;37.35;21.87;;;;;;;3.17;90.41;95286.85;1729109;81;21005;-51
2022/10/16 02:30:10;;;;;;;39.05;22.15;;;;;;;3.25;91.12;95287.08;1728540;81;21100;-52
2022/10/16 02:32:41;;;;;;;33.10;21.68;;;;;;;3.32;90.90;95291.15;1729042;83;21189;-51
2022/10/16 02:35:08;;;;;;;40.78;24.72;;;;;;;3.34;90.85;95295.61;1729086;83;21494;-51
2022/10/16 02:37:36;;;;;;;44.58;23.75;;;;;;;3.31;90.65;95290.95;1729001;82;20977;-51
2022/10/16 02:40:04;;;;;;;36.28;22.07;;;;;;;3.28;90.41;95301.25;1729101;83;20986;-51
2022/10/16 02:42:36;;;;;;;35.88;20.17;;;;;;;3.27;90.39;95296.98;1729308;82;20970;-51
2022/10/16 02:45:05;;;;;;;40.63;25.00;;;;;;;3.28;90.41;95297.17;1729072;83;21143;-51
2022/10/16 02:47:33;;;;;;;37.98;23.70;;;;;;;3.30;90.39;95292.12;1728959;81;20946;-50
2022/10/16 02:50:00;;;;;;;46.35;26.82;;;;;;;3.31;90.44;95297.19;1708574;82;21001;-52
2022/10/16 02:52:27;;;;;;;40.15;24.50;;;;;;;3.32;90.27;95297.95;1733817;81;21013;-51
2022/10/16 02:54:54;;;;;;;43.40;22.98;;;;;;;3.28;90.09;95295.21;1737193;82;20973;-50
2022/10/16 02:57:22;;;;;;;36.25;22.25;;;;;;;3.28;90.19;95294.45;1737303;81;21403;-51
2022/10/16 02:59:48;;;;;;;37.28;22.80;;;;;;;3.28;90.05;95308.05;1737096;81;21005;-52
2022/10/16 03:02:15;;;;;;;39.00;23.27;;;;;;;3.24;89.79;95308.03;1737206;82;21025;-51
2022/10/16 03:04:42;;;;;;;38.20;22.48;;;;;;;3.22;89.88;95312.31;1737057;81;21449;-51
2022/10/16 03:07:10;;;;;;;48.10;26.12;;;;;;;3.17;89.88;95318.91;1737152;82;21041;-50
2022/10/16 03:09:37;;;;;;;44.77;25.70;;;;;;;3.12;90.01;95308.98;1737132;82;21150;-52
2022/10/16 03:12:05;;;;;;;40.43;23.42;;;;;;;3.06;90.03;95307.23;1737069;81;20970;-52
2022/10/16 03:14:33;;;;;;;35.45;21.30;;;;;;;2.99;90.05;95307.22;1737058;82;21418;-51
2022/10/16 03:17:01;;;;;;;30.10;19.17;;;;;;;2.97;90.02;95319.63;1737096;81;21001;-51
2022/10/16 03:19:27;;;;;;;32.98;22.00;;;;;;;2.93;90.01;95321.00;1737170;82;21017;-51
2022/10/16 03:21:54;;;;;;;37.42;21.20;;;;;;;2.89;90.11;95326.22;1737073;82;21293;-51
2022/10/16 03:24:21;;;;;;;42.55;23.98;;;;;;;2.85;90.34;95332.23;1737096;82;20920;-51
2022/10/16 03:26:47;;;;;;;44.45;24.55;;;;;;;2.78;90.33;95328.11;1737026;81;21056;-51
2022/10/16 03:29:14;;;;;;;37.63;22.50;;;;;;;2.76;90.91;95337.22;1737001;82;21008;-50
2022/10/16 03:31:41;;;;;;;34.95;22.27;;;;;;;2.80;90.98;95329.86;1737078;81;20954;-52
2022/10/16 03:34:08;;;;;;;43.83;26.87;;;;;;;2.83;90.92;95330.48;1737150;82;21256;-51
2022/10/16 03:36:34;;;;;;;44.98;26.45;;;;;;;2.86;90.90;95336.50;1737119;81;21001;-51
2022/10/16 03:39:01;;;;;;;41.33;25.37;;;;;;;2.90;91.02;95338.64;1737091;82;20941;-51
2022/10/16 03:41:28;;;;;;;46.13;27.07;;;;;;;2.95;91.00;95333.62;1737052;82;21103;-51
2022/10/16 03:43:55;;;;;;;42.80;26.55;;;;;;;3.00;91.06;95340.59;1737113;82;21489;-51
2022/10/16 03:46:23;;;;;;;39.10;26.68;;;;;;;3.02;90.68;95334.98;1737144;82;20894;-51
2022/10/16 03:48:50;;;;;;;39.18;24.27;;;;;;;3.10;90.90;95335.78;1737058;82;20993;-51
2022/10/16 03:51:17;;;;;;;39.90;25.68;;;;;;;3.18;90.50;95345.48;1737023;82;21036;-51
2022/10/16 03:53:43;;;;;;;38.00;24.52;;;;;;;3.25;90.38;95341.45;1710007;82;21025;-51
2022/10/16 03:56:10;;;;;;;32.85;20.65;;;;;;;3.30;90.00;95346.50;1710224;82;21053;-51
2022/10/16 03:58:37;;;;;;;32.98;20.20;;;;;;;3.27;89.29;95350.75;1737004;81;21146;-52
2022/10/16 04:01:04;;;;;;;30.05;18.25;;;;;;;3.19;88.98;95356.56;1737143;82;20949;-51
2022/10/16 04:03:31;;;;;;;29.63;18.10;;;;;;;3.09;88.97;95354.61;1737049;81;21048;-52
2022/10/16 04:05:57;;;;;;;29.10;18.07;;;;;;;2.99;88.89;95349.34;1737200;82;21099;-52
2022/10/16 04:08:24;;;;;;;40.70;20.05;;;;;;;2.97;89.34;95352.23;1737078;81;20969;-52
2022/10/16 04:10:51;;;;;;;30.02;19.98;;;;;;;2.97;89.20;95351.67;1737012;81;21940;-51
2022/10/16 04:13:18;;;;;;;34.40;20.48;;;;;;;2.96;89.29;95353.40;1736945;81;21005;-51
2022/10/16 04:15:46;;;;;;;32.30;20.68;;;;;;;2.91;89.37;95353.18;1737031;82;21020;-52
2022/10/16 04:18:13;;;;;;;33.55;19.52;;;;;;;2.90;89.36;95358.42;1737128;82;20970;-51
2022/10/16 04:20:41;;;;;;;34.18;23.12;;;;;;;2.88;89.44;95357.27;1737225;82;20873;-51
2022/10/16 04:23:08;;;;;;;34.55;23.20;;;;;;;2.84;89.18;95356.48;1737281;81;21544;-52
2022/10/16 04:25:36;;;;;;;48.70;28.50;;;;;;;2.80;89.19;95363.25;1710296;82;20953;-51
2022/10/16 04:28:03;;;;;;;44.63;26.90;;;;;;;2.79;89.31;95360.91;1710041;82;21016;-51
2022/10/16 04:30:30;;;;;;;48.68;25.82;;;;;;;2.75;89.31;95363.62;1736994;82;21017;-50
2022/10/16 04:32:56;;;;;;;46.65;23.77;;;;;;;2.69;89.28;95364.38;1737026;81;21036;-50
2022/10/16 04:35:23;;;;;;;39.33;22.05;;;;;;;2.62;89.60;95368.40;1737060;81;21300;-51
2022/10/16 04:37:50;;;;;;;31.57;19.85;;;;;;;2.61;89.70;95374.98;1736961;82;20974;-51
2022/10/16 04:40:17;;;;;;;37.05;22.75;;;;;;;2.64;89.89;95371.50;1737099;82;21590;-52
2022/10/16 04:42:45;;;;;;;38.28;22.05;;;;;;;2.65;89.97;95367.66;1737013;81;20998;-52
2022/10/16 04:45:12;;;;;;;48.80;23.22;;;;;;;2.65;89.91;95374.45;1737127;82;20961;-51
2022/10/16 04:47:39;;;;;;;42.27;24.27;;;;;;;2.67;90.17;95377.56;1737088;82;21203;-50
2022/10/16 04:50:07;;;;;;;47.03;26.30;;;;;;;2.72;90.44;95367.68;1736876;82;20978;-55
2022/10/16 04:52:34;;;;;;;46.88;22.50;;;;;;;2.78;90.35;95375.65;1733787;81;20970;-51
2022/10/16 04:55:02;;;;;;;37.25;21.35;;;;;;;2.82;90.13;95372.36;1728910;83;21014;-51
2022/10/16 04:57:31;;;;;;;36.75;21.62;;;;;;;2.85;89.92;95377.05;1728993;83;21489;-51
2022/10/16 04:59:57;;;;;;;45.15;24.47;;;;;;;2.86;89.92;95373.17;1708520;83;22037;-51
2022/10/16 05:02:25;;;;;;;45.80;24.18;;;;;;;2.84;89.95;95378.98;1708538;82;21414;-51
2022/10/16 05:04:51;;;;;;;42.25;25.72;;;;;;;2.83;89.76;95379.38;1728963;82;20974;-51
2022/10/16 05:07:19;;;;;;;55.63;25.88;;;;;;;2.76;89.73;95380.69;1708435;82;21040;-52
2022/10/16 05:09:47;;;;;;;49.98;26.02;;;;;;;2.73;89.77;95386.89;1729041;81;21004;-51
2022/10/16 05:12:14;;;;;;;41.40;23.00;;;;;;;2.73;89.95;95399.11;1728869;83;22145;-52
2022/10/16 05:14:41;;;;;;;39.53;23.77;;;;;;;2.74;89.90;95406.10;1728922;81;21009;-50
2022/10/16 05:17:08;;;;;;;43.83;22.82;;;;;;;2.77;90.05;95397.98;1728940;82;21002;-51
2022/10/16 05:19:34;;;;;;;36.85;20.17;;;;;;;2.74;89.92;95404.74;1728977;83;20965;-51
2022/10/16 05:22:01;;;;;;;39.27;22.45;;;;;;;2.72;90.04;95412.50;1729013;83;20958;-51
2022/10/16 05:24:29;;;;;;;41.18;23.45;;;;;;;2.69;89.84;95413.27;1728971;83;21045;-52
2022/10/16 05:26:56;;;;;;;35.98;23.55;;;;;;;2.63;89.86;95416.12;1728917;81;21018;-52
2022/10/16 05:29:23;;;;;;;40.23;24.18;;;;;;;2.64;90.15;95411.68;1708192;83;21005;-52
2022/10/16 05:31:52;;;;;;;53.95;27.45;;;;;;;2.74;90.67;95419.12;1728881;81;21048;-51
2022/10/16 05:34:20;;;;;;;52.67;28.80;;;;;;;2.84;90.85;95417.61;1729223;81;20997;-52
2022/10/16 05:36:46;;;;;;;52.10;24.40;;;;;;;2.94;90.80;95425.81;1729046;83;21901;-51
2022/10/16 05:39:14;;;;;;;37.35;22.13;;;;;;;2.99;90.64;95413.20;1708426;83;21458;-51
2022/10/16 05:41:41;;;;;;;35.15;23.65;;;;;;;3.00;90.45;95420.20;1729044;83;20965;-51
2022/10/16 05:44:09;;;;;;;35.98;23.10;;;;;;;3.04;90.62;95417.50;1728943;83;21025;-52
2022/10/16 05:46:36;;;;;;;41.13;24.67;;;;;;;3.11;90.60;95418.88;1729060;81;21042;-51
2022/10/16 05:49:03;;;;;;;41.00;24.92;;;;;;;3.16;90.65;95422.58;1729096;81;21243;-52
2022/10/16 05:51:30;;;;;;;40.92;25.80;;;;;;;3.24;90.86;95422.81;1728962;83;21104;-52
2022/10/16 05:53:56;;;;;;;47.23;28.42;;;;;;;3.31;90.89;95424.97;1729024;82;21108;-52
2022/10/16 05:56:23;;;;;;;49.80;28.67;;;;;;;3.38;90.88;95424.22;1729134;83;20982;-54
2022/10/16 05:58:50;;;;;;;62.43;30.65;;;;;;;3.47;90.96;95426.77;1729096;83;21002;-52
2022/10/16 06:01:18;;;;;;;56.30;28.35;;;;;;;3.63;91.32;95425.23;1729126;81;21239;-52
2022/10/16 06:03:46;;;;;;;48.38;33.65;;;;;;;3.84;91.38;95420.42;1729062;83;20958;-52
2022/10/16 06:06:21;;;;;;;41.10;26.02;;;;;;;3.98;91.12;95421.77;1708366;83;20977;-51
2022/10/16 06:08:49;;;;;;;29.40;22.17;;;;;;;4.03;90.80;95419.44;1729336;83;21037;-51
2022/10/16 06:11:20;;;;;;;35.60;24.82;;;;;;;4.09;90.63;95423.31;1708376;83;21021;-51
2022/10/16 06:13:52;;;;;;;38.90;24.60;;;;;;;4.12;90.45;95425.86;1728894;82;21264;-51
2022/10/16 06:16:20;;;;;;;35.28;23.70;;;;;;;4.15;90.37;95427.23;1728979;83;21009;-51
2022/10/16 06:18:48;;;;;;;37.90;26.93;;;;;;;4.22;90.45;95420.41;1729097;83;21030;-52
2022/10/16 06:21:18;;;;;;;38.20;28.70;;;;;;;4.35;90.86;95422.94;1729090;81;20990;-54
2022/10/16 06:23:46;;;;;;;35.17;26.77;;;;;;;4.53;91.12;95422.33;1729314;81;21044;-53
2022/10/16 06:26:16;;;;;;;30.43;21.00;;;;;;;4.74;90.99;95421.48;1729084;83;21227;-52
2022/10/16 06:28:44;;;;;;;27.85;21.05;;;;;;;4.93;91.06;95420.47;1728982;83;20993;-53
2022/10/16 06:31:11;;;;;;;38.15;22.70;;;;;;;5.18;90.88;95423.88;1729002;81;21041;-52
2022/10/16 06:33:40;;;;;;;42.27;27.65;;;;;;;5.39;90.92;95418.34;1708653;83;21069;-53
2022/10/16 06:36:10;;;;;;;34.00;25.25;;;;;;;5.61;90.32;95426.61;1708557;83;21524;-52
2022/10/16 06:38:37;;;;;;;35.08;23.02;;;;;;;5.70;89.76;95426.92;1729419;83;21247;-51
2022/10/16 06:41:05;;;;;;;32.00;23.83;;;;;;;5.77;89.33;95427.66;1729215;81;20965;-52
2022/10/16 06:43:32;;;;;;;37.23;25.52;;;;;;;5.81;88.90;95435.87;1728931;83;20994;-52
2022/10/16 06:45:59;;;;;;;29.23;21.35;;;;;;;5.83;88.77;95431.55;1729147;81;21045;-53
2022/10/16 06:48:27;;;;;;;30.85;20.12;;;;;;;5.89;88.64;95434.64;1728948;83;21135;-53
2022/10/16 06:51:05;;;;;;;32.98;20.72;;;;;;;5.92;88.67;95433.83;1728940;83;21129;-54
2022/10/16 06:53:34;;;;;;;33.88;24.27;;;;;;;5.97;88.66;95433.42;1728952;82;21418;-52
2022/10/16 06:56:12;;;;;;;39.05;23.67;;;;;;;6.07;88.82;95438.02;1707857;83;21441;-53
2022/10/16 06:58:39;;;;;;;33.95;22.50;;;;;;;6.21;88.69;95446.12;1725538;81;21062;-52
2022/10/16 07:01:06;;;;;;;30.45;21.87;;;;;;;6.32;88.37;95442.73;1729029;83;21001;-52
2022/10/16 07:03:33;;;;;;;31.82;21.60;;;;;;;6.39;88.14;95449.48;1728974;83;21243;-52
2022/10/16 07:06:04;;;;;;;30.27;22.10;;;;;;;6.46;87.97;95452.16;1728935;81;21111;-52
2022/10/16 07:08:35;;;;;;;37.45;26.10;;;;;;;6.52;87.86;95460.13;1729310;83;21013;-53
2022/10/16 07:11:05;;;;;;;32.98;23.12;;;;;;;6.65;87.84;95456.48;1728493;81;20977;-53
2022/10/16 07:13:39;;;;;;;34.08;21.55;;;;;;;6.83;87.62;95454.94;1729282;82;20993;-53
2022/10/16 07:16:18;;;;;;;27.02;19.15;;;;;;;7.04;87.39;95458.85;1729176;81;21222;-52
2022/10/16 07:18:46;;;;;;;28.38;19.20;;;;;;;7.26;86.85;95461.72;1729002;83;20990;-53
2022/10/16 07:21:17;;;;;;;23.92;17.15;;;;;;;7.45;86.36;95463.84;1729057;81;20970;-52
2022/10/16 07:23:44;;;;;;;25.12;17.35;;;;;;;7.60;85.93;95463.85;1708146;83;20993;-52
2022/10/16 07:26:11;;;;;;;26.70;17.98;;;;;;;7.76;85.35;95462.67;1728914;81;21021;-53
2022/10/16 07:28:39;;;;;;;29.67;16.07;;;;;;;7.93;85.06;95457.55;1728962;83;21289;-53
2022/10/16 07:31:10;;;;;;;25.25;16.37;;;;;;;8.09;84.03;95453.58;1708522;83;20929;-54
2022/10/16 07:33:38;;;;;;;26.73;15.75;;;;;;;8.23;83.60;95457.52;1708523;83;21005;-55
2022/10/16 07:36:06;;;;;;;29.15;16.77;;;;;;;8.40;83.35;95452.35;1708425;83;21001;-55
2022/10/16 07:38:33;;;;;;;22.15;15.43;;;;;;;8.53;82.26;95456.06;1729399;81;20977;-53
2022/10/16 07:41:03;;;;;;;24.57;16.10;;;;;;;8.63;81.74;95455.72;1728914;81;21246;-52
2022/10/16 07:43:31;;;;;;;26.62;16.02;;;;;;;8.75;81.07;95450.41;1708270;82;20919;-52
2022/10/16 07:45:58;;;;;;;31.60;15.68;;;;;;;8.88;80.76;95453.31;1708709;83;21536;-54
2022/10/16 07:48:28;;;;;;;23.77;16.07;;;;;;;8.98;80.23;95445.68;1728990;83;21418;-53
2022/10/16 07:51:04;;;;;;;29.63;16.55;;;;;;;9.10;79.97;95453.28;1728986;83;20977;-53
2022/10/16 07:53:32;;;;;;;25.85;16.50;;;;;;;9.24;79.55;95442.04;1710068;81;21159;-52
2022/10/16 07:56:02;;;;;;;28.62;14.87;;;;;;;9.42;79.22;95444.45;1739051;82;21058;-56
2022/10/16 07:58:29;;;;;;;19.20;13.22;;;;;;;9.58;78.63;95440.41;1710724;82;21020;-53
2022/10/16 08:00:56;;;;;;;22.90;13.60;;;;;;;9.73;78.10;95440.27;1739158;82;20985;-54
2022/10/16 08:03:24;;;;;;;19.27;13.13;;;;;;;9.86;77.70;95441.17;1739250;82;20961;-54
2022/10/16 08:05:53;;;;;;;22.05;13.13;;;;;;;9.99;77.29;95437.34;1710470;82;21699;-52
2022/10/16 08:08:20;;;;;;;24.12;12.35;;;;;;;10.14;76.86;95439.22;1739106;82;21077;-53
2022/10/16 08:10:47;;;;;;;17.00;12.58;;;;;;;10.29;76.31;95436.30;1710156;82;21044;-53
2022/10/16 08:13:15;;;;;;;24.90;13.18;;;;;;;10.48;76.08;95432.70;1710645;82;20974;-53
2022/10/16 08:15:43;;;;;;;22.87;12.98;;;;;;;10.61;75.36;95430.81;1739220;81;20965;-52
2022/10/16 08:18:12;;;;;;;20.37;14.30;;;;;;;10.70;75.17;95426.88;1739109;82;21915;-54
2022/10/16 08:20:41;;;;;;;19.82;14.30;;;;;;;10.83;75.12;95430.63;1710318;82;21056;-53
2022/10/16 08:23:10;;;;;;;21.15;12.85;;;;;;;10.94;74.99;95425.63;1739042;81;21001;-53
2022/10/16 08:25:38;;;;;;;13.15;10.58;;;;;;;11.06;74.61;95424.93;1739170;81;21088;-52
2022/10/16 08:28:06;;;;;;;19.98;11.57;;;;;;;11.19;74.23;95426.36;1739167;82;21481;-52
2022/10/16 08:30:34;;;;;;;22.30;11.68;;;;;;;11.30;73.87;95423.48;1739052;81;21255;-53
2022/10/16 08:33:02;;;;;;;16.32;11.00;;;;;;;11.43;73.61;95427.06;1739082;81;21382;-53
2022/10/16 08:35:29;;;;;;;14.03;9.13;;;;;;;11.56;73.31;95430.64;1739061;82;20999;-52
2022/10/16 08:37:56;;;;;;;11.95;9.35;;;;;;;11.69;72.88;95423.19;1738975;81;20962;-54
2022/10/16 08:40:27;;;;;;;15.72;8.60;;;;;;;11.81;72.44;95429.34;1739062;81;20965;-52
2022/10/16 08:43:20;;;;;;;12.28;8.70;;;;;;;11.93;71.81;95419.55;1739157;82;21742;-52
2022/10/16 08:46:08;;;;;;;;;;;;;;;12.04;70.95;95433.18;1741639;82;21088;-55
2022/10/16 08:48:51;;;;;;;14.60;9.50;;;;;;;12.18;69.79;95421.73;1739169;81;20440;-53
2022/10/16 08:51:26;;;;;;;13.58;9.38;;;;;;;12.36;69.43;95419.78;1711257;82;21029;-54
2022/10/16 08:54:04;;;;;;;14.50;8.95;;;;;;;12.59;69.86;95416.86;1737905;81;20953;-53
2022/10/16 08:56:33;;;;;;;11.12;8.68;;;;;;;12.87;69.70;95416.55;1709972;82;21145;-53
2022/10/16 08:59:00;;;;;;;13.90;8.55;;;;;;;13.13;68.36;95415.27;1736947;82;21005;-54
2022/10/16 09:01:41;;;;;;;9.95;8.05;;;;;;;13.38;67.60;95413.78;1737046;82;21096;-54
2022/10/16 09:04:51;;;;;;;17.98;9.38;;;;;;;13.62;66.32;95412.15;1728822;81;21075;-54
2022/10/16 09:07:40;;;;;;;17.77;8.93;;;;;;;13.78;65.40;95415.47;1736847;82;21017;-53
2022/10/16 09:10:26;;;;;;;9.93;8.10;;;;;;;13.96;64.71;95410.05;1736894;81;21517;-53
2022/10/16 09:13:14;;;;;;;14.43;8.95;;;;;;;14.19;63.84;95404.67;1709718;82;21029;-54
2022/10/16 09:15:53;;;;;;;20.77;8.50;;;;;;;14.40;63.61;95398.30;1736974;81;20969;-55
2022/10/16 09:18:31;;;;;;;44.08;23.40;;;;;;;14.71;62.77;95396.42;1737194;82;21066;-54
2022/10/16 09:21:28;;;;;;;13.45;8.63;;;;;;;15.01;62.16;95402.47;1736964;81;21064;-54
2022/10/16 09:24:07;;;;;;;15.03;8.98;;;;;;;15.27;60.85;95403.75;1736244;82;21246;-53
2022/10/16 09:26:34;;;;;;;14.68;9.48;;;;;;;15.54;60.54;95397.46;1736467;82;20949;-53
2022/10/16 09:29:00;;;;;;;19.20;11.53;;;;;;;15.79;59.72;95394.34;1710033;82;21020;-55
2022/10/16 09:31:27;;;;;;;16.12;8.15;;;;;;;16.14;59.38;95394.91;1736945;81;21520;-56
2022/10/16 09:33:59;;;;;;;11.65;8.35;;;;;;;16.56;59.30;95403.39;1737219;81;21492;-55
2022/10/16 09:36:27;;;;;;;12.03;7.25;;;;;;;17.04;58.41;95394.48;1737021;81;21403;-55
2022/10/16 09:39:09;;;;;;;9.78;7.85;;;;;;;17.63;57.07;95396.27;1736908;82;21161;-55
2022/10/16 09:41:41;;;;;;;19.87;8.15;;;;;;;18.18;55.53;95387.67;1710438;82;21005;-55
2022/10/16 09:44:29;;;;;;;;;;;;;;;18.74;53.82;95390.13;1739593;81;21028;-54
2022/10/16 09:47:24;;;;;;;12.28;7.05;;;;;;;19.25;52.45;95391.00;1734930;82;20167;-53
2022/10/16 09:49:59;;;;;;;12.33;7.40;;;;;;;19.90;51.09;95389.62;1736426;82;21835;-56
2022/10/16 09:52:26;;;;;;;10.23;6.87;;;;;;;20.65;48.41;95390.09;1736856;82;21018;-54
2022/10/16 09:54:59;;;;;;;10.08;5.70;;;;;;;21.16;46.66;95376.75;1731383;81;21014;-55
2022/10/16 09:57:27;;;;;;;12.73;5.53;;;;;;;21.56;45.75;95384.05;1729065;83;21445;-55
2022/10/16 09:59:57;;;;;;;10.00;5.30;;;;;;;22.02;45.09;95381.69;1729168;81;20973;-53
2022/10/16 10:02:37;;;;;;;10.90;5.87;;;;;;;22.57;43.47;95381.92;1708184;82;22076;-54
2022/10/16 10:05:08;;;;;;;10.60;5.75;;;;;;;23.09;41.15;95374.48;1728830;81;20962;-54
2022/10/16 10:07:39;;;;;;;8.15;5.17;;;;;;;23.61;42.15;95377.41;1726664;82;20981;-56
2022/10/16 10:10:22;;;;;;;11.10;5.97;;;;;;;24.14;40.33;95376.27;1729202;83;20941;-55
2022/10/16 10:12:50;;;;;;;6.37;4.83;;;;;;;24.58;39.24;95373.20;1711264;83;21009;-55
2022/10/16 10:15:21;;;;;;;13.85;6.33;;;;;;;25.05;38.03;95374.57;1729134;83;21238;-55
2022/10/16 10:17:55;;;;;;;8.33;5.00;;;;;;;25.31;36.63;95367.16;1708446;83;20993;-56
2022/10/16 10:20:38;;;;;;;8.13;5.12;;;;;;;25.58;37.58;95369.55;1728928;83;21511;-56
2022/10/16 10:23:03;;;;;;;6.60;4.80;;;;;;;25.88;35.65;95363.95;1728312;81;21028;-58
2022/10/16 10:26:09;;;;;;;17.45;6.37;;;;;;;26.11;35.75;95365.94;1727324;81;21013;-54
2022/10/16 10:28:50;;;;;;;13.90;5.87;;;;;;;26.52;35.18;95360.74;1728854;82;21481;-55
2022/10/16 10:31:31;;;;;;;13.88;6.30;;;;;;;26.94;33.74;95359.81;1708572;82;21572;-54
2022/10/16 10:34:09;;;;;;;16.10;6.35;;;;;;;27.15;34.42;95355.73;1728977;81;21170;-55
2022/10/16 10:36:41;;;;;;;9.35;6.28;;;;;;;27.31;32.25;95351.21;1729076;82;21032;-53
2022/10/16 10:39:22;;;;;;;10.00;4.60;;;;;;;27.35;32.94;95348.81;1708906;83;21025;-55
2022/10/16 10:42:30;;;;;;;7.22;3.90;;;;;;;27.62;30.81;95353.83;1729036;81;21214;-55
2022/10/16 10:45:23;;;;;;;8.45;5.72;;;;;;;27.97;30.75;95347.06;1729096;81;20954;-54
2022/10/16 10:48:00;;;;;;;8.33;4.62;;;;;;;28.31;29.81;95342.22;1728974;82;21153;-55
2022/10/16 10:50:57;;;;;;;9.20;5.08;;;;;;;28.69;30.33;95340.55;1728894;83;20961;-55
2022/10/16 10:53:38;;;;;;;17.15;5.20;;;;;;;28.99;30.11;95345.11;1727317;82;20945;-54
2022/10/16 10:56:19;;;;;;;11.65;5.00;;;;;;;29.34;28.73;95338.78;1729278;81;21277;-54
2022/10/16 10:59:11;;;;;;;12.05;5.28;;;;;;;29.65;27.16;95341.28;1708396;83;21016;-55
2022/10/16 11:01:42;;;;;;;;;;;;;;;29.72;26.19;95336.97;1731266;81;21077;-53
2022/10/16 11:04:30;;;;;;;4.83;4.20;;;;;;;29.78;25.96;95341.82;1728791;83;20137;-53
2022/10/16 11:07:04;;;;;;;5.85;4.65;;;;;;;29.65;26.14;95339.12;1728942;83;21154;-54
2022/10/16 11:09:37;;;;;;;9.03;4.70;;;;;;;29.71;26.47;95337.62;1728929;81;20950;-54
2022/10/16 11:12:12;;;;;;;20.92;4.97;;;;;;;29.93;26.20;95337.75;1729197;81;20958;-54
2022/10/16 11:15:24;;;;;;;9.50;4.20;;;;;;;30.23;25.49;95334.30;1728914;81;21050;-54
2022/10/16 11:18:18;;;;;;;7.90;5.05;;;;;;;30.37;25.30;95334.27;1728901;83;21019;-54
2022/10/16 11:20:57;;;;;;;6.12;4.78;;;;;;;30.41;25.16;95335.42;1729045;82;20942;-54
2022/10/16 11:23:44;;;;;;;8.45;4.00;;;;;;;30.47;24.76;95329.57;1729271;81;21156;-54
2022/10/16 11:26:21;;;;;;;12.45;3.77;;;;;;;30.48;24.78;95326.83;1710928;83;21001;-56
2022/10/16 11:28:50;;;;;;;7.65;3.50;;;;;;;30.45;24.54;95330.13;1729165;82;21524;-54
2022/10/16 11:31:31;;;;;;;5.75;3.92;;;;;;;30.34;24.68;95317.67;1728881;81;20979;-55
2022/10/16 11:34:14;;;;;;;6.00;3.65;;;;;;;30.11;24.67;95314.02;1729355;81;21178;-53
2022/10/16 11:36:49;;;;;;;7.67;3.70;;;;;;;29.89;24.97;95314.66;1728900;82;21005;-54
2022/10/16 11:39:30;;;;;;;4.35;3.10;;;;;;;29.95;25.91;95309.56;1728853;83;20954;-54
2022/10/16 11:42:24;;;;;;;5.25;3.70;;;;;;;30.33;25.02;95314.73;1728995;81;21078;-55
2022/10/16 11:45:15;;;;;;;7.97;3.35;;;;;;;30.48;24.48;95307.69;1728251;82;21057;-54
2022/10/16 11:48:01;;;;;;;7.53;3.55;;;;;;;30.32;24.36;95308.97;1729123;82;20975;-54
2022/10/16 11:50:52;;;;;;;5.70;3.67;;;;;;;30.40;24.60;95313.25;1728615;82;21414;-54